createdAt,value
2018-04-17T00:00:43.768Z,61.60
2018-04-17T00:03:11.220Z,62.00
2018-04-17T00:05:38.680Z,61.50
2018-04-17T00:08:07.044Z,61.50
2018-04-17T00:10:34.484Z,61.20
2018-04-17T00:13:01.953Z,61.30
2018-04-17T00:15:29.400Z,61.60
2018-04-17T00:17:56.852Z,62.00
2018-04-17T00:20:24.291Z,61.90
2018-04-17T00:22:51.749Z,61.70
2018-04-17T00:25:19.192Z,62.50
2018-04-17T00:27:46.732Z,62.10
2018-04-17T00:30:14.928Z,61.50
2018-04-17T00:32:42.391Z,61.40
2018-04-17T00:35:09.840Z,62.00
2018-04-17T00:37:37.293Z,61.60
2018-04-17T00:40:05.509Z,61.30
2018-04-17T00:42:32.996Z,61.20
2018-04-17T00:45:00.444Z,61.90
2018-04-17T00:47:27.899Z,61.90
2018-04-17T00:49:56.112Z,61.00
2018-04-17T00:52:23.585Z,61.00
2018-04-17T00:54:51.033Z,61.00
2018-04-17T00:57:18.496Z,61.40
2018-04-17T00:59:46.709Z,60.90
2018-04-17T01:02:14.169Z,60.80
2018-04-17T01:04:41.612Z,61.10
2018-04-17T01:07:09.841Z,61.40
2018-04-17T01:09:37.329Z,61.40
2018-04-17T01:12:04.741Z,61.30
2018-04-17T01:14:32.961Z,62.60
2018-04-17T01:17:00.411Z,62.50
2018-04-17T01:19:27.864Z,62.40
2018-04-17T01:21:56.131Z,63.00
2018-04-17T01:24:23.577Z,62.90
2018-04-17T01:26:51.027Z,63.00
2018-04-17T01:29:18.484Z,63.10
2018-04-17T01:31:45.957Z,63.20
2018-04-17T01:34:13.412Z,62.60
2018-04-17T01:36:40.868Z,63.20
2018-04-17T01:39:09.074Z,63.40
2018-04-17T01:41:36.537Z,63.40
2018-04-17T01:44:03.975Z,63.60
2018-04-17T01:46:32.224Z,64.90
2018-04-17T01:48:59.665Z,64.20
2018-04-17T01:51:27.130Z,64.10
2018-04-17T01:53:54.685Z,64.00
2018-04-17T01:56:22.912Z,63.00
2018-04-17T01:58:50.365Z,63.00
2018-04-17T02:01:17.807Z,63.20
2018-04-17T02:03:46.272Z,63.40
2018-04-17T02:06:14.512Z,63.20
2018-04-17T02:08:41.972Z,63.20
2018-04-17T02:11:09.429Z,63.60
2018-04-17T02:13:38.705Z,63.30
2018-04-17T02:16:06.149Z,63.50
2018-04-17T02:18:33.603Z,63.90
2018-04-17T02:21:01.047Z,64.60
2018-04-17T02:23:29.275Z,64.50
2018-04-17T02:25:56.716Z,64.50
2018-04-17T02:28:24.167Z,64.30
2018-04-17T02:33:26.409Z,64.00
2018-04-17T02:35:53.857Z,64.00
2018-04-17T02:38:22.076Z,64.40
2018-04-17T02:40:49.541Z,64.40
2018-04-17T02:43:17.040Z,64.50
2018-04-17T02:45:44.488Z,64.50
2018-04-17T02:48:11.949Z,65.30
2018-04-17T02:50:39.401Z,65.10
2018-04-17T02:53:06.865Z,65.10
2018-04-17T02:55:34.315Z,65.20
2018-04-17T02:58:02.550Z,65.40
2018-04-17T03:00:29.999Z,65.40
2018-04-17T03:02:57.472Z,65.50
2018-04-17T03:05:24.908Z,65.60
2018-04-17T03:07:53.130Z,65.70
2018-04-17T03:10:20.589Z,65.70
2018-04-17T03:12:48.044Z,65.60
2018-04-17T03:15:15.502Z,65.90
2018-04-17T03:17:43.720Z,65.80
2018-04-17T03:20:11.159Z,65.80
2018-04-17T03:22:39.396Z,65.90
2018-04-17T03:25:06.860Z,65.70
2018-04-17T03:27:34.324Z,65.60
2018-04-17T03:30:01.779Z,65.70
2018-04-17T03:32:29.363Z,66.20
2018-04-17T03:34:56.809Z,66.00
2018-04-17T03:37:24.272Z,65.80
2018-04-17T03:39:51.727Z,66.00
2018-04-17T03:42:19.960Z,66.10
2018-04-17T03:44:47.403Z,65.90
2018-04-17T03:47:14.910Z,66.10
2018-04-17T03:49:42.382Z,66.20
2018-04-17T03:52:09.859Z,66.40
2018-04-17T03:54:37.324Z,66.10
2018-04-17T03:57:04.802Z,66.40
2018-04-17T03:59:32.266Z,66.10
2018-04-17T04:01:59.748Z,66.40
2018-04-17T04:04:27.201Z,65.80
2018-04-17T04:06:55.450Z,66.10
2018-04-17T04:09:22.902Z,66.00
2018-04-17T04:11:50.371Z,66.20
2018-04-17T04:14:18.601Z,66.10
2018-04-17T04:16:57.926Z,66.00
2018-04-17T04:19:37.369Z,66.50
2018-04-17T04:22:16.913Z,66.20
2018-04-17T04:24:56.382Z,66.30
2018-04-17T04:27:23.875Z,66.60
2018-04-17T04:29:51.317Z,66.60
2018-04-17T04:32:18.777Z,66.70
2018-04-17T04:34:46.298Z,66.90
2018-04-17T04:37:13.716Z,66.60
2018-04-17T04:39:41.168Z,67.00
2018-04-17T04:42:08.638Z,66.60
2018-04-17T04:44:36.117Z,66.60
2018-04-17T04:47:03.580Z,66.40
2018-04-17T04:49:31.085Z,66.60
2018-04-17T04:51:58.550Z,66.80
2018-04-17T04:54:26.018Z,67.00
2018-04-17T04:56:53.469Z,66.90
2018-04-17T04:59:20.945Z,66.60
2018-04-17T05:01:48.413Z,66.70
2018-04-17T05:04:15.880Z,66.60
2018-04-17T05:06:43.324Z,66.80
2018-04-17T05:09:11.561Z,67.10
2018-04-17T05:11:39.017Z,67.10
2018-04-17T05:14:06.486Z,67.10
2018-04-17T05:16:33.945Z,67.50
2018-04-17T05:19:01.443Z,67.30
2018-04-17T05:21:28.892Z,67.00
2018-04-17T05:23:56.369Z,67.00
2018-04-17T05:26:23.816Z,66.90
2018-04-17T05:28:51.284Z,66.70
2018-04-17T05:31:18.741Z,66.70
2018-04-17T05:33:46.201Z,67.10
2018-04-17T05:36:14.442Z,66.80
2018-04-17T05:38:41.912Z,66.80
2018-04-17T05:41:09.383Z,66.80
2018-04-17T05:43:36.849Z,66.80
2018-04-17T05:46:04.317Z,67.10
2018-04-17T05:48:31.801Z,66.70
2018-04-17T05:50:59.263Z,66.80
2018-04-17T05:53:26.746Z,67.30
2018-04-17T05:55:54.272Z,67.10
2018-04-17T05:58:21.695Z,66.70
2018-04-17T06:00:49.151Z,66.60
2018-04-17T06:03:16.620Z,66.80
2018-04-17T06:05:44.077Z,67.20
2018-04-17T06:08:11.558Z,67.70
2018-04-17T06:10:39.013Z,67.20
2018-04-17T06:13:06.483Z,67.10
2018-04-17T06:15:33.932Z,67.50
2018-04-17T06:18:01.406Z,68.00
2018-04-17T06:20:28.862Z,68.20
2018-04-17T06:22:56.337Z,67.70
2018-04-17T06:25:23.815Z,67.40
2018-04-17T06:27:51.279Z,67.90
2018-04-17T06:30:18.737Z,67.80
2018-04-17T06:32:46.187Z,68.00
2018-04-17T06:35:13.649Z,68.00
2018-04-17T06:37:41.870Z,67.40
2018-04-17T06:40:09.329Z,67.30
2018-04-17T06:42:36.794Z,67.40
2018-04-17T06:45:04.270Z,67.10
2018-04-17T06:47:31.746Z,66.90
2018-04-17T06:49:59.188Z,65.70
2018-04-17T06:52:26.651Z,65.80
2018-04-17T06:54:54.872Z,65.80
2018-04-17T06:57:22.324Z,65.80
2018-04-17T06:59:49.802Z,65.10
2018-04-17T07:02:17.248Z,65.40
2018-04-17T07:04:44.725Z,65.50
2018-04-17T07:07:12.167Z,65.50
2018-04-17T07:09:40.419Z,64.90
2018-04-17T07:12:07.997Z,64.80
2018-04-17T07:14:35.465Z,63.10
2018-04-17T07:17:02.990Z,62.80
2018-04-17T07:19:30.406Z,62.40
2018-04-17T07:21:57.944Z,61.70
2018-04-17T07:24:25.413Z,62.30
2018-04-17T07:26:52.869Z,61.90
2018-04-17T07:29:20.337Z,62.70
2018-04-17T07:31:47.788Z,61.70
2018-04-17T07:34:16.030Z,62.10
2018-04-17T07:36:43.518Z,62.00
2018-04-17T07:39:11.160Z,61.20
2018-04-17T07:41:38.606Z,60.40
2018-04-17T07:44:06.076Z,61.10
2018-04-17T07:46:33.545Z,61.70
2018-04-17T07:49:06.599Z,60.90
2018-04-17T07:51:34.113Z,60.50
2018-04-17T07:54:02.329Z,60.00
2018-04-17T07:56:29.799Z,60.00
2018-04-17T07:58:57.260Z,60.80
2018-04-17T08:01:24.727Z,61.00
2018-04-17T08:03:52.212Z,58.00
2018-04-17T08:06:19.669Z,58.90
2018-04-17T08:08:47.132Z,60.00
2018-04-17T08:11:14.598Z,60.50
2018-04-17T08:13:42.069Z,60.90
2018-04-17T08:16:09.582Z,61.80
2018-04-17T08:18:37.093Z,61.90
2018-04-17T08:21:04.544Z,62.00
2018-04-17T08:23:32.786Z,61.30
2018-04-17T08:26:00.262Z,61.20
2018-04-17T08:28:27.728Z,60.50
2018-04-17T08:30:55.180Z,58.90
2018-04-17T08:33:22.637Z,60.20
2018-04-17T08:35:50.114Z,61.40
2018-04-17T08:38:17.557Z,59.80
2018-04-17T08:40:45.078Z,60.20
2018-04-17T08:43:12.524Z,60.20
2018-04-17T08:45:39.995Z,60.60
2018-04-17T08:48:07.450Z,60.80
2018-04-17T08:50:34.925Z,60.10
2018-04-17T08:53:02.385Z,60.60
2018-04-17T08:55:29.858Z,60.40
2018-04-17T08:57:57.318Z,59.70
2018-04-17T09:00:24.794Z,59.10
2018-04-17T09:02:52.258Z,58.50
2018-04-17T09:05:19.762Z,60.20
2018-04-17T09:07:47.284Z,60.40
2018-04-17T09:10:14.766Z,60.80
2018-04-17T09:12:42.221Z,58.80
2018-04-17T09:15:09.694Z,59.70
2018-04-17T09:17:37.158Z,61.20
2018-04-17T09:20:05.393Z,60.80
2018-04-17T09:22:32.845Z,60.80
2018-04-17T09:25:00.320Z,59.70
2018-04-17T09:27:27.887Z,57.80
2018-04-17T09:29:55.344Z,59.30
2018-04-17T09:32:22.796Z,58.00
2018-04-17T09:34:50.272Z,57.70
2018-04-17T09:37:17.741Z,58.30
2018-04-17T09:39:45.263Z,58.50
2018-04-17T09:42:12.728Z,58.60
2018-04-17T09:44:40.259Z,57.10
2018-04-17T09:47:07.754Z,59.50
2018-04-17T09:49:35.222Z,59.10
2018-04-17T09:52:02.689Z,56.70
2018-04-17T09:54:30.162Z,57.00
2018-04-17T09:56:57.668Z,55.10
2018-04-17T09:59:25.913Z,55.10
2018-04-17T10:01:53.378Z,55.00
2018-04-17T10:04:20.842Z,51.40
2018-04-17T10:06:48.298Z,49.60
2018-04-17T10:09:15.765Z,48.00
2018-04-17T10:11:43.237Z,48.20
2018-04-17T10:14:10.698Z,47.40
2018-04-17T10:16:38.155Z,45.60
2018-04-17T10:19:06.390Z,44.10
2018-04-17T10:21:33.878Z,44.10
2018-04-17T10:24:01.345Z,42.60
2018-04-17T10:26:29.572Z,45.20
2018-04-17T10:28:57.810Z,41.60
2018-04-17T10:31:25.284Z,41.60
2018-04-17T10:33:52.745Z,42.90
2018-04-17T10:36:20.200Z,41.80
2018-04-17T10:38:47.762Z,43.30
2018-04-17T10:41:15.236Z,44.60
2018-04-17T10:43:42.697Z,45.80
2018-04-17T10:46:10.169Z,45.50
2018-04-17T10:48:37.625Z,45.40
2018-04-17T10:51:05.110Z,46.10
2018-04-17T10:53:32.560Z,45.60
2018-04-17T10:56:00.024Z,45.40
2018-04-17T10:58:27.477Z,45.20
2018-04-17T11:00:55.700Z,43.00
2018-04-17T11:03:23.163Z,42.20
2018-04-17T11:05:50.629Z,41.70
2018-04-17T11:08:18.081Z,40.60
2018-04-17T11:10:45.540Z,41.70
2018-04-17T11:13:13.756Z,41.60
2018-04-17T11:15:41.215Z,41.60
2018-04-17T11:18:08.660Z,39.60
2018-04-17T11:20:36.889Z,38.90
2018-04-17T11:23:04.343Z,38.90
2018-04-17T11:25:31.810Z,38.70
2018-04-17T11:27:59.267Z,35.20
2018-04-17T11:30:26.734Z,37.40
2018-04-17T11:32:54.181Z,36.10
2018-04-17T11:35:21.727Z,34.20
2018-04-17T11:37:49.179Z,34.70
2018-04-17T11:40:16.645Z,35.10
2018-04-17T11:42:44.098Z,36.30
2018-04-17T11:45:11.565Z,35.00
2018-04-17T11:47:39.009Z,35.80
2018-04-17T11:50:07.239Z,32.50
2018-04-17T11:52:34.701Z,32.30
2018-04-17T11:55:02.166Z,31.90
2018-04-17T11:57:29.644Z,32.20
2018-04-17T11:59:57.103Z,33.40
2018-04-17T12:02:24.566Z,32.60
2018-04-17T12:04:52.026Z,33.50
2018-04-17T12:07:19.468Z,30.90
2018-04-17T12:09:47.696Z,32.80
2018-04-17T12:12:15.145Z,32.70
2018-04-17T12:14:42.667Z,29.30
2018-04-17T12:17:10.113Z,30.10
2018-04-17T12:19:37.577Z,30.30
2018-04-17T12:22:05.025Z,32.80
2018-04-17T12:24:32.493Z,33.70
2018-04-17T12:26:59.998Z,32.70
2018-04-17T12:29:28.172Z,32.20
2018-04-17T12:31:55.625Z,32.10
2018-04-17T12:34:23.081Z,33.00
2018-04-17T12:36:50.557Z,33.70
2018-04-17T12:39:18.021Z,34.70
2018-04-17T12:41:45.472Z,36.00
2018-04-17T12:44:13.696Z,32.70
2018-04-17T12:46:41.153Z,32.70
2018-04-17T12:49:08.670Z,35.10
2018-04-17T12:51:36.137Z,36.40
2018-04-17T12:54:03.589Z,33.90
2018-04-17T12:56:31.044Z,34.00
2018-04-17T12:58:58.496Z,32.90
2018-04-17T13:01:25.949Z,32.40
2018-04-17T13:03:54.175Z,31.50
2018-04-17T13:06:21.641Z,31.50
2018-04-17T13:08:49.092Z,32.80
2018-04-17T13:11:16.558Z,33.00
2018-04-17T13:13:44.006Z,33.50
2018-04-17T13:16:12.233Z,31.50
2018-04-17T13:18:39.681Z,31.50
2018-04-17T13:21:07.144Z,35.80
2018-04-17T13:23:34.590Z,34.90
2018-04-17T13:26:02.817Z,32.20
2018-04-17T13:28:30.264Z,32.20
2018-04-17T13:30:57.721Z,31.60
2018-04-17T13:33:25.954Z,33.80
2018-04-17T13:35:53.425Z,33.80
2018-04-17T13:38:20.878Z,32.50
2018-04-17T13:40:48.337Z,35.20
2018-04-17T13:43:15.798Z,36.10
2018-04-17T13:45:44.021Z,34.50
2018-04-17T13:48:11.480Z,34.50
2018-04-17T13:50:38.928Z,33.40
2018-04-17T13:53:06.372Z,33.00
2018-04-17T13:55:34.606Z,36.40
2018-04-17T13:58:02.061Z,36.30
2018-04-17T14:00:29.526Z,36.90
2018-04-17T14:02:56.969Z,37.10
2018-04-17T14:05:25.193Z,35.50
2018-04-17T14:07:52.645Z,35.40
2018-04-17T14:10:20.104Z,36.20
2018-04-17T14:12:48.330Z,34.20
2018-04-17T14:15:15.786Z,34.10
2018-04-17T14:17:43.252Z,34.90
2018-04-17T14:20:10.700Z,32.60
2018-04-17T14:22:38.158Z,34.80
2018-04-17T14:25:06.414Z,37.50
2018-04-17T14:27:33.860Z,37.50
2018-04-17T14:30:01.323Z,35.40
2018-04-17T14:32:28.783Z,37.90
2018-04-17T14:34:56.229Z,40.50
2018-04-17T14:37:24.448Z,38.70
2018-04-17T14:39:51.937Z,38.70
2018-04-17T14:42:19.402Z,41.30
2018-04-17T14:44:46.861Z,41.20
2018-04-17T14:47:14.313Z,40.70
2018-04-17T14:49:41.773Z,38.30
2018-04-17T14:52:09.378Z,39.10
2018-04-17T14:54:36.816Z,37.10
2018-04-17T14:57:04.276Z,39.50
2018-04-17T14:59:31.725Z,38.60
2018-04-17T15:01:59.949Z,39.60
2018-04-17T15:04:27.563Z,39.60
2018-04-17T15:06:55.020Z,39.30
2018-04-17T15:09:22.465Z,38.30
2018-04-17T15:11:49.930Z,38.50
2018-04-17T15:14:17.390Z,40.50
2018-04-17T15:16:44.854Z,39.30
2018-04-17T15:19:12.355Z,40.40
2018-04-17T15:21:39.812Z,41.40
2018-04-17T15:24:07.259Z,39.90
2018-04-17T15:26:34.723Z,39.50
2018-04-17T15:29:02.165Z,41.10
2018-04-17T15:31:30.397Z,41.70
2018-04-17T15:33:57.854Z,41.20
2018-04-17T15:36:25.331Z,43.80
2018-04-17T15:38:52.793Z,43.00
2018-04-17T15:41:20.251Z,40.20
2018-04-17T15:43:48.479Z,43.90
2018-04-17T15:46:15.933Z,43.80
2018-04-17T15:48:43.410Z,42.10
2018-04-17T15:51:10.869Z,42.80
2018-04-17T15:53:38.313Z,41.40
2018-04-17T15:56:05.797Z,43.30
2018-04-17T15:58:33.240Z,44.80
2018-04-17T16:01:01.498Z,45.70
2018-04-17T16:03:28.985Z,45.70
2018-04-17T16:05:56.416Z,46.50
2018-04-17T16:08:23.860Z,41.70
2018-04-17T16:10:51.326Z,46.80
2018-04-17T16:13:18.764Z,45.40
2018-04-17T16:15:47.002Z,45.00
2018-04-17T16:18:14.472Z,45.00
2018-04-17T16:20:41.930Z,45.30
2018-04-17T16:23:09.385Z,48.50
2018-04-17T16:25:36.850Z,48.50
2018-04-17T16:28:04.300Z,47.40
2018-04-17T16:30:32.530Z,46.80
2018-04-17T16:32:59.994Z,46.80
2018-04-17T16:35:27.434Z,49.10
2018-04-17T16:37:55.658Z,49.20
2018-04-17T16:40:23.109Z,49.20
2018-04-17T16:42:50.560Z,49.20
2018-04-17T16:45:18.787Z,50.80
2018-04-17T16:47:46.249Z,50.80
2018-04-17T16:50:13.697Z,52.50
2018-04-17T16:52:41.189Z,53.10
2018-04-17T16:55:08.666Z,53.30
2018-04-17T16:57:36.133Z,53.30
2018-04-17T17:00:03.598Z,53.80
2018-04-17T17:02:31.052Z,51.20
2018-04-17T17:04:58.500Z,54.10
2018-04-17T17:07:26.762Z,51.60
2018-04-17T17:09:54.200Z,51.60
2018-04-17T17:12:21.670Z,50.10
2018-04-17T17:14:49.145Z,51.10
2018-04-17T17:17:16.614Z,51.20
2018-04-17T17:19:44.069Z,52.80
2018-04-17T17:22:11.617Z,52.50
2018-04-17T17:24:39.823Z,53.20
2018-04-17T17:27:07.324Z,53.20
2018-04-17T17:29:34.758Z,53.80
2018-04-17T17:32:02.234Z,54.70
2018-04-17T17:34:29.685Z,54.70
2018-04-17T17:36:57.162Z,54.70
2018-04-17T17:39:24.596Z,55.00
2018-04-17T17:41:52.831Z,55.80
2018-04-17T17:44:20.285Z,55.90
2018-04-17T17:46:47.749Z,55.50
2018-04-17T17:49:15.221Z,56.40
2018-04-17T17:51:42.692Z,55.50
2018-04-17T17:54:10.133Z,57.00
2018-04-17T17:56:38.357Z,57.20
2018-04-17T17:59:05.814Z,57.20
2018-04-17T18:01:33.278Z,57.50
2018-04-17T18:04:00.730Z,57.70
2018-04-17T18:06:28.234Z,58.20
2018-04-17T18:08:55.677Z,58.10
2018-04-17T18:11:23.151Z,58.30
2018-04-17T18:13:50.593Z,58.40
2018-04-17T18:16:18.924Z,58.30
2018-04-17T18:18:46.360Z,58.30
2018-04-17T18:21:14.596Z,58.20
2018-04-17T18:23:42.053Z,58.20
2018-04-17T18:26:09.516Z,58.10
2018-04-17T18:28:37.025Z,58.00
2018-04-17T18:31:04.608Z,57.90
2018-04-17T18:33:32.834Z,57.70
2018-04-17T18:36:00.300Z,57.60
2018-04-17T18:38:27.748Z,57.90
2018-04-17T18:40:55.184Z,58.20
2018-04-17T18:43:22.648Z,58.10
2018-04-17T18:45:57.999Z,58.20
2018-04-17T18:48:25.480Z,58.20
2018-04-17T18:50:53.036Z,58.60
2018-04-17T18:53:20.612Z,58.60
2018-04-17T18:55:48.201Z,58.80
2018-04-17T18:58:16.049Z,59.00
2018-04-17T19:00:43.521Z,59.10
2018-04-17T19:03:10.968Z,59.20
2018-04-17T19:05:38.541Z,59.10
2018-04-17T19:08:06.006Z,59.50
2018-04-17T19:10:33.458Z,59.50
2018-04-17T19:13:00.926Z,59.40
2018-04-17T19:15:28.381Z,59.50
2018-04-17T19:17:56.618Z,59.50
2018-04-17T19:20:24.069Z,59.50
2018-04-17T19:22:51.547Z,59.10
2018-04-17T19:25:18.997Z,59.20
2018-04-17T19:27:46.522Z,59.40
2018-04-17T19:30:14.190Z,59.70
2018-04-17T19:32:41.686Z,60.00
2018-04-17T19:35:09.896Z,60.20
2018-04-17T19:37:37.362Z,60.20
2018-04-17T19:40:04.886Z,59.40
2018-04-17T19:42:33.169Z,60.10
2018-04-17T19:45:00.621Z,60.00
2018-04-17T19:47:28.081Z,60.50
2018-04-17T19:49:55.530Z,60.80
2018-04-17T19:52:23.015Z,60.90
2018-04-17T19:54:50.542Z,60.90
2018-04-17T19:57:18.757Z,60.00
2018-04-17T19:59:46.230Z,59.80
2018-04-17T20:02:13.702Z,60.20
2018-04-17T20:04:41.177Z,60.60
2018-04-17T20:07:08.634Z,61.00
2018-04-17T20:09:36.112Z,60.90
2018-04-17T20:12:03.556Z,61.00
2018-04-17T20:14:31.768Z,61.40
2018-04-17T20:16:59.339Z,61.30
2018-04-17T20:19:26.817Z,61.50
2018-04-17T20:21:54.274Z,61.20
2018-04-17T20:24:21.740Z,61.30
2018-04-17T20:26:49.309Z,61.30
2018-04-17T20:29:17.519Z,59.80
2018-04-17T20:31:45.039Z,59.80
2018-04-17T20:34:12.469Z,59.30
2018-04-17T20:36:42.572Z,59.90
2018-04-17T20:39:10.067Z,59.90
2018-04-17T20:41:37.518Z,60.40
2018-04-17T20:44:04.964Z,60.40
2018-04-17T20:46:32.435Z,60.90
2018-04-17T20:49:00.653Z,60.60
2018-04-17T20:51:28.180Z,60.60
2018-04-17T20:53:55.617Z,60.30
2018-04-17T20:56:23.162Z,61.00
2018-04-17T20:58:50.616Z,61.50
2018-04-17T21:01:18.093Z,61.30
2018-04-17T21:03:45.604Z,61.50
2018-04-17T21:06:13.049Z,61.50
2018-04-17T21:08:40.528Z,61.10
2018-04-17T21:11:07.980Z,60.20
2018-04-17T21:13:35.449Z,58.70
2018-04-17T21:16:02.906Z,58.20
2018-04-17T21:18:30.365Z,58.00
2018-04-17T21:20:57.826Z,57.60
2018-04-17T21:23:25.293Z,58.50
2018-04-17T21:25:53.509Z,60.00
2018-04-17T21:28:21.739Z,61.20
2018-04-17T21:30:49.195Z,61.20
2018-04-17T21:33:16.660Z,62.00
2018-04-17T21:35:44.104Z,61.70
2018-04-17T21:38:11.569Z,61.80
2018-04-17T21:40:39.020Z,61.80
2018-04-17T21:43:06.494Z,62.40
2018-04-17T21:45:33.956Z,62.40
2018-04-17T21:48:01.418Z,62.70
2018-04-17T21:50:29.630Z,62.50
2018-04-17T21:52:57.106Z,62.50
2018-04-17T21:55:24.560Z,62.60
2018-04-17T21:57:52.024Z,61.90
2018-04-17T22:00:19.491Z,62.20
2018-04-17T22:02:46.954Z,62.80
2018-04-17T22:05:14.410Z,63.00
2018-04-17T22:07:42.645Z,63.20
2018-04-17T22:10:10.087Z,63.20
2018-04-17T22:12:37.553Z,63.60
2018-04-17T22:15:05.026Z,63.80
2018-04-17T22:17:32.489Z,62.90
2018-04-17T22:19:59.939Z,62.80
2018-04-17T22:22:28.170Z,63.70
2018-04-17T22:24:55.625Z,63.70
2018-04-17T22:27:23.089Z,63.20
2018-04-17T22:29:50.580Z,63.50
2018-04-17T22:32:18.061Z,63.50
2018-04-17T22:34:45.517Z,63.00
2018-04-17T22:37:13.028Z,63.90
2018-04-17T22:39:41.349Z,64.30
2018-04-17T22:42:08.819Z,64.30
2018-04-17T22:44:36.279Z,64.60
2018-04-17T22:47:04.500Z,64.80
2018-04-17T22:49:31.965Z,64.80
2018-04-17T22:51:59.437Z,63.80
2018-04-17T22:54:26.884Z,64.00
2018-04-17T22:56:54.333Z,62.90
2018-04-17T22:59:22.566Z,63.10
2018-04-17T23:01:50.022Z,63.10
2018-04-17T23:04:17.485Z,63.30
2018-04-17T23:06:44.937Z,63.30
2018-04-17T23:09:12.433Z,62.70
2018-04-17T23:11:39.889Z,61.70
2018-04-17T23:14:07.369Z,61.60
2018-04-17T23:16:34.840Z,62.20
2018-04-17T23:19:02.323Z,62.50
2018-04-17T23:21:29.778Z,63.40
2018-04-17T23:23:57.249Z,64.00
2018-04-17T23:26:24.704Z,64.10
2018-04-17T23:28:52.169Z,64.20
2018-04-17T23:31:19.657Z,63.80
2018-04-17T23:33:47.136Z,64.00
2018-04-17T23:36:14.593Z,64.40
2018-04-17T23:38:42.066Z,63.70
2018-04-17T23:41:09.525Z,63.60
2018-04-17T23:43:36.984Z,63.80
2018-04-17T23:46:04.450Z,63.90
2018-04-17T23:48:31.922Z,63.80
2018-04-17T23:50:59.387Z,63.20
2018-04-17T23:53:26.877Z,63.10
2018-04-17T23:55:54.354Z,63.20
2018-04-17T23:58:21.821Z,62.90
